sensor_id;sensor_type;location;lat;lon;timestamp;P1;durP1;ratioP1;P2;durP2;ratioP2
44137;SDS011;29800;55.942;37.314;2023-02-01T00:01:45;11.00;;;5.80;;
44137;SDS011;29800;55.942;37.314;2023-02-01T00:04:11;11.93;;;6.90;;
44137;SDS011;29800;55.942;37.314;2023-02-01T00:06:37;10.73;;;7.10;;
44137;SDS011;29800;55.942;37.314;2023-02-01T00:09:03;12.10;;;6.88;;
44137;SDS011;29800;55.942;37.314;2023-02-01T00:11:30;12.23;;;6.63;;
44137;SDS011;29800;55.942;37.314;2023-02-01T00:13:56;12.63;;;7.40;;
44137;SDS011;29800;55.942;37.314;2023-02-01T00:16:24;13.15;;;7.35;;
44137;SDS011;29800;55.942;37.314;2023-02-01T00:18:55;11.25;;;6.50;;
44137;SDS011;29800;55.942;37.314;2023-02-01T00:21:28;13.30;;;7.18;;
44137;SDS011;29800;55.942;37.314;2023-02-01T00:23:55;13.68;;;7.43;;
44137;SDS011;29800;55.942;37.314;2023-02-01T00:26:38;14.07;;;7.13;;
44137;SDS011;29800;55.942;37.314;2023-02-01T00:29:08;13.02;;;8.07;;
44137;SDS011;29800;55.942;37.314;2023-02-01T00:31:37;14.18;;;8.32;;
44137;SDS011;29800;55.942;37.314;2023-02-01T00:34:03;14.38;;;8.18;;
44137;SDS011;29800;55.942;37.314;2023-02-01T00:36:30;16.48;;;9.10;;
44137;SDS011;29800;55.942;37.314;2023-02-01T00:38:57;15.40;;;8.15;;
44137;SDS011;29800;55.942;37.314;2023-02-01T00:41:24;14.23;;;8.60;;
44137;SDS011;29800;55.942;37.314;2023-02-01T00:43:51;15.10;;;8.93;;
44137;SDS011;29800;55.942;37.314;2023-02-01T00:46:18;13.55;;;9.05;;
44137;SDS011;29800;55.942;37.314;2023-02-01T00:48:44;16.35;;;9.52;;
44137;SDS011;29800;55.942;37.314;2023-02-01T00:51:12;14.20;;;8.38;;
44137;SDS011;29800;55.942;37.314;2023-02-01T00:53:40;13.57;;;8.27;;
44137;SDS011;29800;55.942;37.314;2023-02-01T00:56:07;18.35;;;9.27;;
44137;SDS011;29800;55.942;37.314;2023-02-01T00:58:34;16.30;;;9.52;;
44137;SDS011;29800;55.942;37.314;2023-02-01T01:01:10;21.02;;;10.00;;
44137;SDS011;29800;55.942;37.314;2023-02-01T01:03:40;16.02;;;10.15;;
44137;SDS011;29800;55.942;37.314;2023-02-01T01:06:09;17.70;;;9.90;;
44137;SDS011;29800;55.942;37.314;2023-02-01T01:08:39;15.43;;;9.18;;
44137;SDS011;29800;55.942;37.314;2023-02-01T01:11:10;16.30;;;9.40;;
44137;SDS011;29800;55.942;37.314;2023-02-01T01:13:38;16.92;;;9.32;;
44137;SDS011;29800;55.942;37.314;2023-02-01T01:16:06;17.13;;;9.13;;
44137;SDS011;29800;55.942;37.314;2023-02-01T01:18:34;14.15;;;8.27;;
44137;SDS011;29800;55.942;37.314;2023-02-01T01:21:00;16.60;;;9.27;;
44137;SDS011;29800;55.942;37.314;2023-02-01T01:23:27;15.23;;;8.30;;
44137;SDS011;29800;55.942;37.314;2023-02-01T01:25:53;17.63;;;9.23;;
44137;SDS011;29800;55.942;37.314;2023-02-01T01:28:19;16.00;;;8.55;;
44137;SDS011;29800;55.942;37.314;2023-02-01T01:30:45;17.00;;;8.93;;
44137;SDS011;29800;55.942;37.314;2023-02-01T01:33:12;14.82;;;8.70;;
44137;SDS011;29800;55.942;37.314;2023-02-01T01:35:38;14.63;;;8.38;;
44137;SDS011;29800;55.942;37.314;2023-02-01T01:38:04;13.32;;;7.82;;
44137;SDS011;29800;55.942;37.314;2023-02-01T01:40:31;14.98;;;8.45;;
44137;SDS011;29800;55.942;37.314;2023-02-01T01:42:57;16.73;;;8.75;;
44137;SDS011;29800;55.942;37.314;2023-02-01T01:45:31;16.65;;;8.85;;
44137;SDS011;29800;55.942;37.314;2023-02-01T01:48:04;16.17;;;8.25;;
44137;SDS011;29800;55.942;37.314;2023-02-01T01:53:02;16.52;;;9.88;;
44137;SDS011;29800;55.942;37.314;2023-02-01T01:55:32;14.48;;;8.00;;
44137;SDS011;29800;55.942;37.314;2023-02-01T01:58:05;17.52;;;9.85;;
44137;SDS011;29800;55.942;37.314;2023-02-01T02:00:33;20.02;;;12.13;;
44137;SDS011;29800;55.942;37.314;2023-02-01T02:03:02;17.17;;;10.40;;
44137;SDS011;29800;55.942;37.314;2023-02-01T02:05:33;15.98;;;9.35;;
44137;SDS011;29800;55.942;37.314;2023-02-01T02:08:00;15.00;;;8.60;;
44137;SDS011;29800;55.942;37.314;2023-02-01T02:10:29;14.93;;;8.32;;
44137;SDS011;29800;55.942;37.314;2023-02-01T02:13:15;15.95;;;9.35;;
44137;SDS011;29800;55.942;37.314;2023-02-01T02:15:48;16.67;;;9.07;;
44137;SDS011;29800;55.942;37.314;2023-02-01T02:27:09;15.43;;;8.38;;
44137;SDS011;29800;55.942;37.314;2023-02-01T02:35:53;14.75;;;8.73;;
44137;SDS011;29800;55.942;37.314;2023-02-01T02:41:08;15.93;;;9.30;;
44137;SDS011;29800;55.942;37.314;2023-02-01T02:44:02;16.55;;;9.38;;
44137;SDS011;29800;55.942;37.314;2023-02-01T02:47:00;14.57;;;8.63;;
44137;SDS011;29800;55.942;37.314;2023-02-01T02:52:52;14.85;;;9.02;;
44137;SDS011;29800;55.942;37.314;2023-02-01T02:55:46;14.27;;;8.48;;
44137;SDS011;29800;55.942;37.314;2023-02-01T02:58:14;16.15;;;8.90;;
44137;SDS011;29800;55.942;37.314;2023-02-01T03:01:00;16.77;;;8.02;;
44137;SDS011;29800;55.942;37.314;2023-02-01T03:03:47;19.30;;;9.23;;
44137;SDS011;29800;55.942;37.314;2023-02-01T03:06:39;13.60;;;8.30;;
44137;SDS011;29800;55.942;37.314;2023-02-01T03:09:06;18.55;;;8.48;;
44137;SDS011;29800;55.942;37.314;2023-02-01T03:11:39;21.75;;;9.63;;
44137;SDS011;29800;55.942;37.314;2023-02-01T03:14:30;16.00;;;9.52;;
44137;SDS011;29800;55.942;37.314;2023-02-01T03:17:04;16.20;;;8.77;;
44137;SDS011;29800;55.942;37.314;2023-02-01T03:19:39;13.93;;;7.93;;
44137;SDS011;29800;55.942;37.314;2023-02-01T03:22:22;14.55;;;7.80;;
44137;SDS011;29800;55.942;37.314;2023-02-01T03:24:55;15.82;;;8.13;;
44137;SDS011;29800;55.942;37.314;2023-02-01T03:30:20;12.75;;;8.05;;
44137;SDS011;29800;55.942;37.314;2023-02-01T03:32:54;14.82;;;8.10;;
44137;SDS011;29800;55.942;37.314;2023-02-01T03:44:23;17.17;;;8.63;;
44137;SDS011;29800;55.942;37.314;2023-02-01T03:46:54;13.63;;;8.25;;
44137;SDS011;29800;55.942;37.314;2023-02-01T03:49:34;16.92;;;8.82;;
44137;SDS011;29800;55.942;37.314;2023-02-01T03:52:11;19.00;;;8.65;;
44137;SDS011;29800;55.942;37.314;2023-02-01T03:54:42;14.57;;;8.40;;
44137;SDS011;29800;55.942;37.314;2023-02-01T03:57:10;12.57;;;7.13;;
44137;SDS011;29800;55.942;37.314;2023-02-01T03:59:42;12.77;;;7.80;;
44137;SDS011;29800;55.942;37.314;2023-02-01T04:02:11;14.18;;;7.63;;
44137;SDS011;29800;55.942;37.314;2023-02-01T04:04:37;12.70;;;7.32;;
44137;SDS011;29800;55.942;37.314;2023-02-01T04:07:04;12.50;;;6.93;;
44137;SDS011;29800;55.942;37.314;2023-02-01T04:09:30;12.35;;;7.55;;
44137;SDS011;29800;55.942;37.314;2023-02-01T04:11:56;11.65;;;7.28;;
44137;SDS011;29800;55.942;37.314;2023-02-01T04:14:22;9.90;;;6.90;;
44137;SDS011;29800;55.942;37.314;2023-02-01T04:16:48;13.40;;;7.65;;
44137;SDS011;29800;55.942;37.314;2023-02-01T04:19:14;13.13;;;7.13;;
44137;SDS011;29800;55.942;37.314;2023-02-01T04:21:40;13.18;;;7.38;;
44137;SDS011;29800;55.942;37.314;2023-02-01T04:24:06;15.18;;;8.15;;
44137;SDS011;29800;55.942;37.314;2023-02-01T04:26:34;13.13;;;7.88;;
44137;SDS011;29800;55.942;37.314;2023-02-01T04:28:59;13.40;;;7.45;;
44137;SDS011;29800;55.942;37.314;2023-02-01T04:31:25;15.23;;;7.85;;
44137;SDS011;29800;55.942;37.314;2023-02-01T04:33:53;12.18;;;7.05;;
44137;SDS011;29800;55.942;37.314;2023-02-01T04:36:20;14.85;;;9.02;;
44137;SDS011;29800;55.942;37.314;2023-02-01T04:38:48;17.77;;;9.05;;
44137;SDS011;29800;55.942;37.314;2023-02-01T04:41:15;14.32;;;8.20;;
44137;SDS011;29800;55.942;37.314;2023-02-01T04:43:47;15.75;;;7.82;;
44137;SDS011;29800;55.942;37.314;2023-02-01T04:46:13;14.43;;;8.50;;
44137;SDS011;29800;55.942;37.314;2023-02-01T04:48:40;18.05;;;8.57;;
44137;SDS011;29800;55.942;37.314;2023-02-01T04:51:06;12.38;;;8.50;;
44137;SDS011;29800;55.942;37.314;2023-02-01T04:53:32;15.30;;;9.55;;
44137;SDS011;29800;55.942;37.314;2023-02-01T04:55:58;17.92;;;10.20;;
44137;SDS011;29800;55.942;37.314;2023-02-01T04:58:25;15.85;;;8.10;;
44137;SDS011;29800;55.942;37.314;2023-02-01T05:00:51;14.10;;;8.57;;
44137;SDS011;29800;55.942;37.314;2023-02-01T05:03:17;15.10;;;8.88;;
44137;SDS011;29800;55.942;37.314;2023-02-01T05:05:43;14.40;;;8.90;;
44137;SDS011;29800;55.942;37.314;2023-02-01T05:08:09;15.00;;;9.23;;
44137;SDS011;29800;55.942;37.314;2023-02-01T05:10:35;13.15;;;8.27;;
44137;SDS011;29800;55.942;37.314;2023-02-01T05:13:01;17.08;;;9.93;;
44137;SDS011;29800;55.942;37.314;2023-02-01T05:15:45;16.17;;;9.20;;
44137;SDS011;29800;55.942;37.314;2023-02-01T05:18:12;16.10;;;9.63;;
44137;SDS011;29800;55.942;37.314;2023-02-01T05:20:38;14.45;;;8.95;;
44137;SDS011;29800;55.942;37.314;2023-02-01T05:23:04;16.98;;;8.90;;
44137;SDS011;29800;55.942;37.314;2023-02-01T05:25:31;17.80;;;9.90;;
44137;SDS011;29800;55.942;37.314;2023-02-01T05:27:57;14.95;;;9.13;;
44137;SDS011;29800;55.942;37.314;2023-02-01T05:30:23;16.13;;;9.57;;
44137;SDS011;29800;55.942;37.314;2023-02-01T05:32:50;14.73;;;9.23;;
44137;SDS011;29800;55.942;37.314;2023-02-01T05:35:16;16.33;;;9.55;;
44137;SDS011;29800;55.942;37.314;2023-02-01T05:37:42;16.13;;;10.15;;
44137;SDS011;29800;55.942;37.314;2023-02-01T05:40:08;18.08;;;9.60;;
44137;SDS011;29800;55.942;37.314;2023-02-01T05:42:35;21.25;;;10.02;;
44137;SDS011;29800;55.942;37.314;2023-02-01T05:45:01;17.80;;;10.13;;
44137;SDS011;29800;55.942;37.314;2023-02-01T05:47:29;17.85;;;9.25;;
44137;SDS011;29800;55.942;37.314;2023-02-01T05:49:55;19.13;;;9.90;;
44137;SDS011;29800;55.942;37.314;2023-02-01T05:52:21;17.13;;;10.40;;
44137;SDS011;29800;55.942;37.314;2023-02-01T05:54:47;17.60;;;9.95;;
44137;SDS011;29800;55.942;37.314;2023-02-01T05:57:13;21.08;;;10.32;;
44137;SDS011;29800;55.942;37.314;2023-02-01T05:59:39;17.48;;;9.95;;
44137;SDS011;29800;55.942;37.314;2023-02-01T06:02:10;18.50;;;10.00;;
44137;SDS011;29800;55.942;37.314;2023-02-01T06:04:37;20.23;;;10.38;;
44137;SDS011;29800;55.942;37.314;2023-02-01T06:07:04;19.05;;;9.95;;
44137;SDS011;29800;55.942;37.314;2023-02-01T06:09:33;19.35;;;11.00;;
44137;SDS011;29800;55.942;37.314;2023-02-01T06:12:00;20.30;;;11.27;;
44137;SDS011;29800;55.942;37.314;2023-02-01T06:14:26;23.00;;;11.48;;
44137;SDS011;29800;55.942;37.314;2023-02-01T06:16:53;17.73;;;10.38;;
44137;SDS011;29800;55.942;37.314;2023-02-01T06:19:20;21.52;;;10.77;;
44137;SDS011;29800;55.942;37.314;2023-02-01T06:21:47;19.45;;;10.85;;
44137;SDS011;29800;55.942;37.314;2023-02-01T06:24:13;21.80;;;10.80;;
44137;SDS011;29800;55.942;37.314;2023-02-01T06:26:39;16.73;;;9.90;;
44137;SDS011;29800;55.942;37.314;2023-02-01T06:29:09;18.00;;;10.30;;
44137;SDS011;29800;55.942;37.314;2023-02-01T06:31:36;18.67;;;9.70;;
44137;SDS011;29800;55.942;37.314;2023-02-01T06:34:02;17.70;;;10.68;;
44137;SDS011;29800;55.942;37.314;2023-02-01T06:36:28;19.45;;;10.52;;
44137;SDS011;29800;55.942;37.314;2023-02-01T06:38:57;19.63;;;11.38;;
44137;SDS011;29800;55.942;37.314;2023-02-01T06:41:25;18.48;;;9.70;;
44137;SDS011;29800;55.942;37.314;2023-02-01T06:43:51;17.92;;;9.95;;
44137;SDS011;29800;55.942;37.314;2023-02-01T06:46:17;21.58;;;10.88;;
44137;SDS011;29800;55.942;37.314;2023-02-01T06:48:43;21.42;;;11.23;;
44137;SDS011;29800;55.942;37.314;2023-02-01T06:51:21;20.00;;;10.60;;
44137;SDS011;29800;55.942;37.314;2023-02-01T06:53:49;19.10;;;10.07;;
44137;SDS011;29800;55.942;37.314;2023-02-01T06:56:15;26.88;;;12.77;;
44137;SDS011;29800;55.942;37.314;2023-02-01T06:58:42;24.52;;;13.07;;
44137;SDS011;29800;55.942;37.314;2023-02-01T07:01:08;24.35;;;12.52;;
44137;SDS011;29800;55.942;37.314;2023-02-01T07:03:35;25.52;;;12.40;;
44137;SDS011;29800;55.942;37.314;2023-02-01T07:06:01;20.88;;;11.75;;
44137;SDS011;29800;55.942;37.314;2023-02-01T07:08:29;24.85;;;12.25;;
44137;SDS011;29800;55.942;37.314;2023-02-01T07:11:00;23.40;;;11.40;;
44137;SDS011;29800;55.942;37.314;2023-02-01T07:13:28;24.95;;;12.25;;
44137;SDS011;29800;55.942;37.314;2023-02-01T07:15:54;22.52;;;12.10;;
44137;SDS011;29800;55.942;37.314;2023-02-01T07:18:22;24.95;;;13.38;;
44137;SDS011;29800;55.942;37.314;2023-02-01T07:20:51;23.42;;;12.25;;
44137;SDS011;29800;55.942;37.314;2023-02-01T07:23:17;24.70;;;12.75;;
44137;SDS011;29800;55.942;37.314;2023-02-01T07:25:44;22.88;;;12.27;;
44137;SDS011;29800;55.942;37.314;2023-02-01T07:28:10;27.08;;;12.27;;
44137;SDS011;29800;55.942;37.314;2023-02-01T07:30:36;25.13;;;12.93;;
44137;SDS011;29800;55.942;37.314;2023-02-01T07:33:02;25.17;;;12.82;;
44137;SDS011;29800;55.942;37.314;2023-02-01T07:35:29;25.35;;;12.27;;
44137;SDS011;29800;55.942;37.314;2023-02-01T07:37:57;20.90;;;11.35;;
44137;SDS011;29800;55.942;37.314;2023-02-01T07:40:24;25.08;;;12.40;;
44137;SDS011;29800;55.942;37.314;2023-02-01T07:42:54;25.08;;;12.57;;
44137;SDS011;29800;55.942;37.314;2023-02-01T07:45:21;27.50;;;13.10;;
44137;SDS011;29800;55.942;37.314;2023-02-01T07:47:48;26.20;;;12.82;;
44137;SDS011;29800;55.942;37.314;2023-02-01T07:50:14;22.40;;;11.73;;
44137;SDS011;29800;55.942;37.314;2023-02-01T07:52:41;25.73;;;12.57;;
44137;SDS011;29800;55.942;37.314;2023-02-01T07:55:07;27.02;;;13.18;;
44137;SDS011;29800;55.942;37.314;2023-02-01T07:57:33;24.10;;;12.43;;
44137;SDS011;29800;55.942;37.314;2023-02-01T07:59:59;23.17;;;12.15;;
44137;SDS011;29800;55.942;37.314;2023-02-01T08:02:46;23.52;;;12.40;;
44137;SDS011;29800;55.942;37.314;2023-02-01T08:05:12;26.42;;;12.85;;
44137;SDS011;29800;55.942;37.314;2023-02-01T08:07:38;26.77;;;13.13;;
44137;SDS011;29800;55.942;37.314;2023-02-01T08:10:04;30.38;;;13.25;;
44137;SDS011;29800;55.942;37.314;2023-02-01T08:12:36;28.05;;;12.27;;
44137;SDS011;29800;55.942;37.314;2023-02-01T08:15:03;24.48;;;11.80;;
44137;SDS011;29800;55.942;37.314;2023-02-01T08:17:29;25.73;;;12.88;;
44137;SDS011;29800;55.942;37.314;2023-02-01T08:19:56;27.83;;;13.02;;
44137;SDS011;29800;55.942;37.314;2023-02-01T08:22:22;23.17;;;11.15;;
44137;SDS011;29800;55.942;37.314;2023-02-01T08:24:48;19.80;;;10.82;;
44137;SDS011;29800;55.942;37.314;2023-02-01T08:27:14;22.40;;;11.80;;
44137;SDS011;29800;55.942;37.314;2023-02-01T08:29:40;25.33;;;12.02;;
44137;SDS011;29800;55.942;37.314;2023-02-01T08:32:06;24.80;;;12.02;;
44137;SDS011;29800;55.942;37.314;2023-02-01T08:34:32;23.45;;;11.93;;
44137;SDS011;29800;55.942;37.314;2023-02-01T08:36:58;26.20;;;12.82;;
44137;SDS011;29800;55.942;37.314;2023-02-01T08:39:24;28.65;;;13.70;;
44137;SDS011;29800;55.942;37.314;2023-02-01T08:41:51;27.30;;;12.93;;
44137;SDS011;29800;55.942;37.314;2023-02-01T08:44:36;30.17;;;13.27;;
44137;SDS011;29800;55.942;37.314;2023-02-01T08:47:02;24.50;;;11.77;;
44137;SDS011;29800;55.942;37.314;2023-02-01T08:49:29;25.15;;;12.75;;
44137;SDS011;29800;55.942;37.314;2023-02-01T08:51:55;31.45;;;12.88;;
44137;SDS011;29800;55.942;37.314;2023-02-01T08:54:21;25.35;;;12.52;;
44137;SDS011;29800;55.942;37.314;2023-02-01T08:56:47;24.80;;;11.80;;
44137;SDS011;29800;55.942;37.314;2023-02-01T08:59:13;24.13;;;11.88;;
44137;SDS011;29800;55.942;37.314;2023-02-01T09:01:39;23.83;;;11.63;;
44137;SDS011;29800;55.942;37.314;2023-02-01T09:04:05;25.02;;;11.98;;
44137;SDS011;29800;55.942;37.314;2023-02-01T09:06:31;25.00;;;11.93;;
44137;SDS011;29800;55.942;37.314;2023-02-01T09:08:57;20.67;;;10.00;;
44137;SDS011;29800;55.942;37.314;2023-02-01T09:11:23;22.88;;;11.55;;
44137;SDS011;29800;55.942;37.314;2023-02-01T09:13:51;22.65;;;11.40;;
44137;SDS011;29800;55.942;37.314;2023-02-01T09:16:17;22.02;;;11.25;;
44137;SDS011;29800;55.942;37.314;2023-02-01T09:18:43;21.02;;;11.05;;
44137;SDS011;29800;55.942;37.314;2023-02-01T09:21:09;22.77;;;11.57;;
44137;SDS011;29800;55.942;37.314;2023-02-01T09:23:35;17.83;;;9.25;;
44137;SDS011;29800;55.942;37.314;2023-02-01T09:26:02;21.38;;;11.38;;
44137;SDS011;29800;55.942;37.314;2023-02-01T09:28:29;18.95;;;9.82;;
44137;SDS011;29800;55.942;37.314;2023-02-01T09:30:56;19.80;;;10.43;;
44137;SDS011;29800;55.942;37.314;2023-02-01T09:33:23;20.42;;;10.20;;
44137;SDS011;29800;55.942;37.314;2023-02-01T09:35:55;22.65;;;10.55;;
44137;SDS011;29800;55.942;37.314;2023-02-01T09:38:22;18.98;;;9.20;;
44137;SDS011;29800;55.942;37.314;2023-02-01T09:40:48;21.13;;;11.02;;
44137;SDS011;29800;55.942;37.314;2023-02-01T09:48:34;20.65;;;11.07;;
44137;SDS011;29800;55.942;37.314;2023-02-01T09:51:06;22.77;;;10.53;;
44137;SDS011;29800;55.942;37.314;2023-02-01T09:53:39;21.42;;;10.13;;
44137;SDS011;29800;55.942;37.314;2023-02-01T10:02:26;19.67;;;10.45;;
44137;SDS011;29800;55.942;37.314;2023-02-01T10:04:54;18.77;;;8.90;;
44137;SDS011;29800;55.942;37.314;2023-02-01T10:10:06;19.65;;;9.68;;
44137;SDS011;29800;55.942;37.314;2023-02-01T10:15:49;21.17;;;10.18;;
44137;SDS011;29800;55.942;37.314;2023-02-01T10:18:45;22.35;;;11.77;;
44137;SDS011;29800;55.942;37.314;2023-02-01T10:21:41;20.67;;;10.45;;
44137;SDS011;29800;55.942;37.314;2023-02-01T10:27:40;21.55;;;11.07;;
44137;SDS011;29800;55.942;37.314;2023-02-01T10:30:26;17.70;;;10.23;;
44137;SDS011;29800;55.942;37.314;2023-02-01T10:33:19;22.13;;;10.98;;
44137;SDS011;29800;55.942;37.314;2023-02-01T10:35:50;21.00;;;10.88;;
44137;SDS011;29800;55.942;37.314;2023-02-01T10:38:24;21.30;;;11.25;;
44137;SDS011;29800;55.942;37.314;2023-02-01T10:40:57;20.52;;;11.15;;
44137;SDS011;29800;55.942;37.314;2023-02-01T10:43:28;20.52;;;10.30;;
44137;SDS011;29800;55.942;37.314;2023-02-01T10:45:55;22.48;;;11.65;;
44137;SDS011;29800;55.942;37.314;2023-02-01T10:48:22;19.60;;;10.65;;
44137;SDS011;29800;55.942;37.314;2023-02-01T10:55:50;21.58;;;11.00;;
44137;SDS011;29800;55.942;37.314;2023-02-01T10:58:26;22.63;;;11.48;;
44137;SDS011;29800;55.942;37.314;2023-02-01T11:00:54;20.95;;;10.32;;
44137;SDS011;29800;55.942;37.314;2023-02-01T11:06:18;23.02;;;11.07;;
44137;SDS011;29800;55.942;37.314;2023-02-01T11:08:50;21.23;;;11.65;;
44137;SDS011;29800;55.942;37.314;2023-02-01T11:11:18;22.02;;;12.38;;
44137;SDS011;29800;55.942;37.314;2023-02-01T11:13:44;24.35;;;13.25;;
44137;SDS011;29800;55.942;37.314;2023-02-01T11:16:16;23.55;;;12.43;;
44137;SDS011;29800;55.942;37.314;2023-02-01T11:18:44;20.30;;;11.13;;
44137;SDS011;29800;55.942;37.314;2023-02-01T11:21:10;20.75;;;11.02;;
44137;SDS011;29800;55.942;37.314;2023-02-01T11:23:40;20.73;;;10.85;;
44137;SDS011;29800;55.942;37.314;2023-02-01T11:28:38;21.30;;;10.38;;
44137;SDS011;29800;55.942;37.314;2023-02-01T11:31:09;20.02;;;10.93;;
44137;SDS011;29800;55.942;37.314;2023-02-01T11:33:47;23.50;;;11.68;;
44137;SDS011;29800;55.942;37.314;2023-02-01T11:36:23;23.13;;;11.85;;
44137;SDS011;29800;55.942;37.314;2023-02-01T11:39:38;22.95;;;12.20;;
44137;SDS011;29800;55.942;37.314;2023-02-01T11:44:21;18.50;;;9.88;;
44137;SDS011;29800;55.942;37.314;2023-02-01T11:46:54;19.45;;;12.48;;
44137;SDS011;29800;55.942;37.314;2023-02-01T11:49:24;21.15;;;11.65;;
44137;SDS011;29800;55.942;37.314;2023-02-01T12:00:23;23.80;;;14.35;;
44137;SDS011;29800;55.942;37.314;2023-02-01T12:05:50;20.90;;;12.13;;
44137;SDS011;29800;55.942;37.314;2023-02-01T12:19:56;17.73;;;10.75;;
44137;SDS011;29800;55.942;37.314;2023-02-01T12:36:14;15.95;;;8.77;;
44137;SDS011;29800;55.942;37.314;2023-02-01T12:39:02;17.40;;;10.23;;
44137;SDS011;29800;55.942;37.314;2023-02-01T12:49:50;19.38;;;9.95;;
44137;SDS011;29800;55.942;37.314;2023-02-01T12:52:28;18.50;;;10.45;;
44137;SDS011;29800;55.942;37.314;2023-02-01T12:58:13;21.10;;;10.70;;
44137;SDS011;29800;55.942;37.314;2023-02-01T13:00:59;18.88;;;10.70;;
44137;SDS011;29800;55.942;37.314;2023-02-01T13:03:38;17.33;;;10.80;;
44137;SDS011;29800;55.942;37.314;2023-02-01T13:11:55;19.10;;;11.15;;
44137;SDS011;29800;55.942;37.314;2023-02-01T13:14:32;21.25;;;11.70;;
44137;SDS011;29800;55.942;37.314;2023-02-01T13:17:15;20.48;;;12.02;;
44137;SDS011;29800;55.942;37.314;2023-02-01T13:25:07;21.52;;;12.40;;
44137;SDS011;29800;55.942;37.314;2023-02-01T13:27:39;20.48;;;11.80;;
44137;SDS011;29800;55.942;37.314;2023-02-01T13:35:54;19.70;;;10.80;;
44137;SDS011;29800;55.942;37.314;2023-02-01T13:39:03;18.45;;;10.70;;
44137;SDS011;29800;55.942;37.314;2023-02-01T13:42:16;21.33;;;11.65;;
44137;SDS011;29800;55.942;37.314;2023-02-01T13:47:40;19.40;;;11.35;;
44137;SDS011;29800;55.942;37.314;2023-02-01T13:50:30;18.55;;;9.82;;
44137;SDS011;29800;55.942;37.314;2023-02-01T13:55:45;18.98;;;11.18;;
44137;SDS011;29800;55.942;37.314;2023-02-01T13:58:21;26.45;;;11.82;;
44137;SDS011;29800;55.942;37.314;2023-02-01T14:16:42;19.92;;;10.25;;
44137;SDS011;29800;55.942;37.314;2023-02-01T14:24:57;18.73;;;10.27;;
44137;SDS011;29800;55.942;37.314;2023-02-01T14:27:25;18.25;;;10.73;;
44137;SDS011;29800;55.942;37.314;2023-02-01T14:29:56;18.85;;;10.10;;
44137;SDS011;29800;55.942;37.314;2023-02-01T14:32:25;18.40;;;9.95;;
44137;SDS011;29800;55.942;37.314;2023-02-01T14:34:58;17.58;;;9.18;;
44137;SDS011;29800;55.942;37.314;2023-02-01T14:37:28;17.27;;;9.70;;
44137;SDS011;29800;55.942;37.314;2023-02-01T14:47:51;17.27;;;9.30;;
44137;SDS011;29800;55.942;37.314;2023-02-01T14:55:51;16.45;;;8.23;;
44137;SDS011;29800;55.942;37.314;2023-02-01T14:58:45;15.68;;;8.57;;
44137;SDS011;29800;55.942;37.314;2023-02-01T15:01:28;16.88;;;9.07;;
44137;SDS011;29800;55.942;37.314;2023-02-01T15:09:00;14.57;;;7.72;;
44137;SDS011;29800;55.942;37.314;2023-02-01T15:14:29;16.25;;;9.10;;
44137;SDS011;29800;55.942;37.314;2023-02-01T15:17:01;15.70;;;8.98;;
44137;SDS011;29800;55.942;37.314;2023-02-01T15:19:28;16.65;;;8.95;;
44137;SDS011;29800;55.942;37.314;2023-02-01T15:21:56;16.92;;;9.10;;
44137;SDS011;29800;55.942;37.314;2023-02-01T15:26:51;17.42;;;8.93;;
44137;SDS011;29800;55.942;37.314;2023-02-01T15:29:19;16.13;;;8.55;;
44137;SDS011;29800;55.942;37.314;2023-02-01T15:31:50;15.98;;;8.85;;
44137;SDS011;29800;55.942;37.314;2023-02-01T15:34:18;16.40;;;8.40;;
44137;SDS011;29800;55.942;37.314;2023-02-01T15:36:45;13.40;;;6.78;;
44137;SDS011;29800;55.942;37.314;2023-02-01T15:41:49;16.10;;;8.73;;
44137;SDS011;29800;55.942;37.314;2023-02-01T15:44:19;15.63;;;8.13;;
44137;SDS011;29800;55.942;37.314;2023-02-01T15:46:53;16.27;;;8.68;;
44137;SDS011;29800;55.942;37.314;2023-02-01T15:49:29;15.60;;;8.60;;
44137;SDS011;29800;55.942;37.314;2023-02-01T15:51:59;13.02;;;7.95;;
44137;SDS011;29800;55.942;37.314;2023-02-01T15:54:31;17.65;;;8.52;;
44137;SDS011;29800;55.942;37.314;2023-02-01T15:57:03;15.75;;;7.43;;
44137;SDS011;29800;55.942;37.314;2023-02-01T15:59:32;16.80;;;8.07;;
44137;SDS011;29800;55.942;37.314;2023-02-01T16:02:23;18.77;;;8.43;;
44137;SDS011;29800;55.942;37.314;2023-02-01T16:05:25;17.80;;;8.50;;
44137;SDS011;29800;55.942;37.314;2023-02-01T16:08:14;18.50;;;8.82;;
44137;SDS011;29800;55.942;37.314;2023-02-01T16:10:44;18.17;;;9.73;;
44137;SDS011;29800;55.942;37.314;2023-02-01T16:13:13;19.63;;;8.60;;
44137;SDS011;29800;55.942;37.314;2023-02-01T16:15:40;19.20;;;9.45;;
44137;SDS011;29800;55.942;37.314;2023-02-01T16:18:06;16.45;;;8.57;;
44137;SDS011;29800;55.942;37.314;2023-02-01T16:20:34;16.60;;;8.50;;
44137;SDS011;29800;55.942;37.314;2023-02-01T16:23:01;13.98;;;7.50;;
44137;SDS011;29800;55.942;37.314;2023-02-01T16:25:28;17.70;;;9.75;;
44137;SDS011;29800;55.942;37.314;2023-02-01T16:27:54;15.35;;;7.82;;
44137;SDS011;29800;55.942;37.314;2023-02-01T16:30:21;17.77;;;9.02;;
44137;SDS011;29800;55.942;37.314;2023-02-01T16:32:49;15.80;;;8.32;;
44137;SDS011;29800;55.942;37.314;2023-02-01T16:35:24;18.73;;;9.65;;
44137;SDS011;29800;55.942;37.314;2023-02-01T16:37:52;18.27;;;8.65;;
44137;SDS011;29800;55.942;37.314;2023-02-01T16:40:19;18.55;;;9.30;;
44137;SDS011;29800;55.942;37.314;2023-02-01T16:42:49;19.08;;;9.05;;
44137;SDS011;29800;55.942;37.314;2023-02-01T16:45:17;18.30;;;9.10;;
44137;SDS011;29800;55.942;37.314;2023-02-01T16:47:50;15.82;;;8.05;;
44137;SDS011;29800;55.942;37.314;2023-02-01T16:50:23;17.95;;;9.27;;
44137;SDS011;29800;55.942;37.314;2023-02-01T16:52:51;17.50;;;8.43;;
44137;SDS011;29800;55.942;37.314;2023-02-01T16:55:19;17.63;;;9.60;;
44137;SDS011;29800;55.942;37.314;2023-02-01T16:57:49;17.20;;;8.27;;
44137;SDS011;29800;55.942;37.314;2023-02-01T17:00:16;17.55;;;9.63;;
44137;SDS011;29800;55.942;37.314;2023-02-01T17:02:42;18.15;;;8.75;;
44137;SDS011;29800;55.942;37.314;2023-02-01T17:05:11;16.75;;;8.73;;
44137;SDS011;29800;55.942;37.314;2023-02-01T17:07:38;18.23;;;9.07;;
44137;SDS011;29800;55.942;37.314;2023-02-01T17:10:06;19.13;;;9.90;;
44137;SDS011;29800;55.942;37.314;2023-02-01T17:12:43;16.67;;;8.60;;
44137;SDS011;29800;55.942;37.314;2023-02-01T17:15:10;19.38;;;9.85;;
44137;SDS011;29800;55.942;37.314;2023-02-01T17:17:36;19.25;;;9.65;;
44137;SDS011;29800;55.942;37.314;2023-02-01T17:20:04;16.90;;;8.38;;
44137;SDS011;29800;55.942;37.314;2023-02-01T17:22:31;16.70;;;7.70;;
44137;SDS011;29800;55.942;37.314;2023-02-01T17:24:58;18.80;;;9.40;;
44137;SDS011;29800;55.942;37.314;2023-02-01T17:27:24;17.65;;;8.93;;
44137;SDS011;29800;55.942;37.314;2023-02-01T17:29:50;18.85;;;9.48;;
44137;SDS011;29800;55.942;37.314;2023-02-01T17:32:19;21.10;;;10.02;;
44137;SDS011;29800;55.942;37.314;2023-02-01T17:34:47;17.00;;;9.73;;
44137;SDS011;29800;55.942;37.314;2023-02-01T17:37:30;17.80;;;9.95;;
44137;SDS011;29800;55.942;37.314;2023-02-01T17:39:58;17.33;;;9.73;;
44137;SDS011;29800;55.942;37.314;2023-02-01T17:42:25;16.70;;;8.82;;